Time;durP1;ratioP1;P1;durP2;ratioP2;P2;SDS_P1;SDS_P2;PMS_P1;PMS_P2;Temp;Humidity;BMP_temperature;BMP_pressure;BME280_temperature;BME280_humidity;BME280_pressure;Samples;Min_cycle;Max_cycle;Signal;HPM_P1;HPM_P2
2022/04/29 00:02:11;;;;;;;15.05;8.60;;;7.90;99.90;;;;;;5068086;28;20059;-80
2022/04/29 00:04:38;;;;;;;18.33;9.15;;;7.90;99.90;;;;;;5066601;28;20119;-81
2022/04/29 00:07:06;;;;;;;12.40;8.70;;;7.90;99.90;;;;;;5065992;28;20036;-80
2022/04/29 00:09:32;;;;;;;;;;;7.90;99.90;;;;;;5065120;28;20526;-79
2022/04/29 00:11:59;;;;;;;15.45;8.32;;;7.80;99.90;;;;;;5067069;28;20253;-80
2022/04/29 00:14:28;;;;;;;16.38;8.93;;;7.80;99.90;;;;;;5063642;28;20101;-80
2022/04/29 00:16:54;;;;;;;13.38;9.07;;;7.70;99.90;;;;;;5054140;28;20044;-81
2022/04/29 00:19:19;;;;;;;15.75;7.97;;;7.70;99.90;;;;;;5065883;28;20114;-81
2022/04/29 00:21:45;;;;;;;15.50;8.27;;;7.70;99.90;;;;;;5065010;28;20047;-81
2022/04/29 00:24:11;;;;;;;16.38;9.15;;;7.70;99.90;;;;;;5065898;28;20172;-80
2022/04/29 00:26:37;;;;;;;14.40;8.55;;;7.70;99.90;;;;;;5062986;28;20040;-81
2022/04/29 00:29:07;;;;;;;14.90;8.38;;;7.60;99.90;;;;;;5067071;28;20079;-82
2022/04/29 00:31:33;;;;;;;18.15;9.07;;;7.60;99.90;;;;;;5065518;28;20395;-81
2022/04/29 00:33:59;;;;;;;19.10;8.90;;;7.60;99.90;;;;;;5067211;28;20036;-81
2022/04/29 00:36:25;;;;;;;16.83;8.80;;;7.50;99.90;;;;;;5065658;28;20089;-80
2022/04/29 00:38:52;;;;;;;14.80;8.43;;;7.50;99.90;;;;;;5068755;28;20044;-82
2022/04/29 00:41:19;;;;;;;16.97;8.53;;;7.50;99.90;;;;;;5061259;28;20051;-82
2022/04/29 00:43:45;;;;;;;15.07;8.98;;;7.50;99.90;;;;;;5064190;28;20064;-81
2022/04/29 00:46:12;;;;;;;13.90;9.10;;;7.40;99.90;;;;;;5065130;28;20048;-81
2022/04/29 00:48:37;;;;;;;15.25;8.93;;;7.40;99.90;;;;;;5065591;28;20045;-81
2022/04/29 00:51:04;;;;;;;14.50;8.63;;;7.40;99.90;;;;;;5067807;28;20071;-81
2022/04/29 00:53:30;;;;;;;15.77;8.85;;;7.30;99.90;;;;;;5067694;28;20551;-81
2022/04/29 00:55:58;;;;;;;16.52;9.48;;;7.30;99.90;;;;;;5067006;28;20078;-81
2022/04/29 00:58:38;;;;;;;19.98;9.77;;;7.30;99.90;;;;;;5064056;28;20036;-81
2022/04/29 01:01:04;;;;;;;14.60;8.50;;;7.30;99.90;;;;;;5065786;28;20500;-82
2022/04/29 01:03:32;;;;;;;18.83;9.60;;;7.30;99.90;;;;;;5066977;28;20087;-81
2022/04/29 01:05:58;;;;;;;16.48;9.45;;;7.30;99.90;;;;;;5061478;28;20163;-81
2022/04/29 01:08:23;;;;;;;16.75;9.50;;;7.20;99.90;;;;;;5067176;28;20089;-82
2022/04/29 01:10:49;;;;;;;15.75;9.23;;;7.20;99.90;;;;;;5066227;28;20049;-81
2022/04/29 01:13:17;;;;;;;12.75;9.18;;;7.10;99.90;;;;;;5066430;28;20125;-82
2022/04/29 01:15:43;;;;;;;13.07;8.75;;;7.10;99.90;;;;;;5065554;28;20407;-82
2022/04/29 01:18:09;;;;;;;13.77;8.63;;;7.00;99.90;;;;;;5064767;28;20515;-82
2022/04/29 01:20:36;;;;;;;16.30;9.40;;;7.00;99.90;;;;;;5066775;28;20040;-81
2022/04/29 01:23:06;;;;;;;18.30;9.77;;;7.00;99.90;;;;;;5065124;28;20102;-81
2022/04/29 01:25:32;;;;;;;15.30;9.80;;;6.90;99.90;;;;;;5063927;28;20055;-81
2022/04/29 01:28:04;;;;;;;18.38;9.23;;;6.80;99.90;;;;;;5066231;28;20032;-81
2022/04/29 01:30:31;;;;;;;21.92;10.52;;;6.80;99.90;;;;;;5064363;28;20186;-81
2022/04/29 01:32:58;;;;;;;17.55;9.45;;;6.70;99.90;;;;;;5068251;28;20045;-81
2022/04/29 01:35:24;;;;;;;15.10;9.48;;;6.70;99.90;;;;;;5073546;28;20577;-81
2022/04/29 01:37:50;;;;;;;18.42;9.52;;;6.60;99.90;;;;;;5089568;28;20040;-80
2022/04/29 01:40:16;;;;;;;15.43;10.10;;;6.60;99.90;;;;;;5087385;28;20075;-81
2022/04/29 01:42:42;;;;;;;12.20;9.38;;;6.60;99.90;;;;;;5081143;28;20037;-81
2022/04/29 01:45:09;;;;;;;14.05;9.30;;;6.70;99.90;;;;;;5049262;28;20040;-81
2022/04/29 01:47:35;;;;;;;18.23;10.15;;;6.70;99.90;;;;;;5066974;28;20116;-81
2022/04/29 01:50:01;;;;;;;16.67;10.23;;;6.60;99.90;;;;;;5070002;28;20386;-81
2022/04/29 01:52:27;;;;;;;19.63;10.27;;;6.50;99.90;;;;;;5063001;28;20047;-81
2022/04/29 01:54:53;;;;;;;18.25;10.57;;;6.50;99.90;;;;;;5065381;28;20041;-81
2022/04/29 01:57:18;;;;;;;16.58;9.68;;;6.40;99.90;;;;;;5058537;28;20029;-81
2022/04/29 01:59:44;;;;;;;21.17;11.05;;;6.50;99.90;;;;;;5069057;28;20533;-81
2022/04/29 02:02:10;;;;;;;18.67;10.80;;;6.50;99.90;;;;;;5069491;28;20037;-81
2022/04/29 02:04:36;;;;;;;17.48;10.07;;;6.50;99.90;;;;;;5070232;28;20041;-81
2022/04/29 02:07:04;;;;;;;16.73;10.80;;;6.50;99.90;;;;;;5067873;28;20060;-81
2022/04/29 02:09:30;;;;;;;18.92;11.27;;;6.50;99.90;;;;;;5069240;28;20129;-81
2022/04/29 02:12:04;;;;;;;12.68;9.85;;;6.50;99.90;;;;;;5070602;28;20111;-81
2022/04/29 02:14:35;;;;;;;17.67;10.48;;;6.50;99.90;;;;;;5067698;28;20075;-80
2022/04/29 02:17:02;;;;;;;16.67;10.55;;;6.50;99.90;;;;;;5060965;28;20205;-81
2022/04/29 02:19:30;;;;;;;15.70;10.40;;;6.50;99.90;;;;;;5066494;28;20066;-81
2022/04/29 02:21:57;;;;;;;13.77;10.50;;;6.50;99.90;;;;;;5061836;28;20240;-81
2022/04/29 02:24:23;;;;;;;17.73;10.43;;;6.50;99.90;;;;;;5068176;28;20052;-81
2022/04/29 02:26:48;;;;;;;16.52;10.63;;;6.40;99.90;;;;;;5071353;28;20450;-82
2022/04/29 02:29:14;;;;;;;13.80;10.48;;;6.40;99.90;;;;;;5064826;28;20036;-81
2022/04/29 02:31:40;;;;;;;18.52;11.10;;;6.50;99.90;;;;;;5068379;28;20127;-81
2022/04/29 02:34:06;;;;;;;17.52;10.23;;;6.40;99.90;;;;;;5066119;28;20044;-80
2022/04/29 02:36:34;;;;;;;17.48;11.05;;;6.40;99.90;;;;;;5066231;28;20036;-81
2022/04/29 02:39:02;;;;;;;17.95;10.20;;;6.40;99.90;;;;;;5068920;28;20045;-81
2022/04/29 02:41:28;;;;;;;18.52;11.27;;;6.40;99.90;;;;;;5069125;28;20048;-81
2022/04/29 02:43:54;;;;;;;15.88;11.20;;;6.30;99.90;;;;;;5069575;28;20127;-81
2022/04/29 02:46:19;;;;;;;19.75;11.27;;;6.30;99.90;;;;;;5068716;28;20052;-80
2022/04/29 02:48:47;;;;;;;17.92;11.07;;;6.20;99.90;;;;;;5070042;28;20040;-81
2022/04/29 02:51:13;;;;;;;17.08;10.88;;;6.20;99.90;;;;;;5061795;28;20052;-80
2022/04/29 02:53:39;;;;;;;15.85;10.63;;;6.30;99.90;;;;;;5068496;28;20036;-80
2022/04/29 02:56:05;;;;;;;19.95;10.65;;;6.30;99.90;;;;;;5064882;28;20045;-79
2022/04/29 02:58:30;;;;;;;18.13;10.77;;;6.30;99.90;;;;;;5067405;28;20062;-80
2022/04/29 03:00:56;;;;;;;18.00;11.68;;;6.30;99.90;;;;;;5067454;28;20052;-80
2022/04/29 03:03:22;;;;;;;16.85;10.85;;;6.30;99.90;;;;;;5067767;28;20090;-80
2022/04/29 03:05:48;;;;;;;17.70;11.18;;;6.30;99.90;;;;;;5066775;28;20395;-81
2022/04/29 03:08:15;;;;;;;20.88;11.82;;;6.30;99.90;;;;;;5066780;28;20043;-81
2022/04/29 03:10:41;;;;;;;16.92;11.23;;;6.30;99.90;;;;;;5069947;28;20033;-81
2022/04/29 03:13:08;;;;;;;19.63;11.32;;;6.30;99.90;;;;;;5067167;28;20555;-80
2022/04/29 03:15:34;;;;;;;23.35;11.57;;;6.20;99.90;;;;;;5066413;28;20036;-80
2022/04/29 03:18:20;;;;;;;17.53;11.17;;;6.30;99.90;;;;;;5068244;28;20488;-80
2022/04/29 03:20:47;;;;;;;18.27;10.75;;;6.30;99.90;;;;;;5068909;28;20299;-80
2022/04/29 03:23:13;;;;;;;20.83;11.18;;;6.30;99.90;;;;;;5065217;28;20059;-80
2022/04/29 03:25:46;;;;;;;18.58;11.38;;;6.40;99.90;;;;;;5066285;28;20049;-80
2022/04/29 03:28:12;;;;;;;18.80;12.33;;;6.40;99.90;;;;;;5067863;28;20057;-80
2022/04/29 03:30:38;;;;;;;22.17;11.73;;;6.40;99.90;;;;;;5066669;28;20298;-80
2022/04/29 03:33:05;;;;;;;20.42;12.27;;;6.40;99.90;;;;;;5066630;28;20063;-81
2022/04/29 03:35:31;;;;;;;19.45;11.68;;;6.40;99.90;;;;;;5067957;28;20048;-80
2022/04/29 03:37:57;;;;;;;19.15;12.02;;;6.40;99.90;;;;;;5065253;28;20044;-81
2022/04/29 03:40:24;;;;;;;15.93;11.75;;;6.40;99.90;;;;;;5064073;28;20091;-81
2022/04/29 03:42:55;;;;;;;15.98;11.05;;;6.40;99.90;;;;;;5066305;28;20400;-80
2022/04/29 03:45:23;;;;;;;18.40;11.82;;;6.40;99.90;;;;;;5065808;28;20044;-80
2022/04/29 03:47:49;;;;;;;19.77;12.25;;;6.40;99.90;;;;;;5066456;28;20586;-81
2022/04/29 03:50:16;;;;;;;18.65;11.52;;;6.40;99.90;;;;;;5069408;28;20511;-81
2022/04/29 03:52:49;;;;;;;19.65;12.10;;;6.40;99.90;;;;;;5063108;28;20938;-81
2022/04/29 03:55:15;;;;;;;20.10;12.27;;;6.40;99.90;;;;;;5066841;28;20043;-81
2022/04/29 03:57:41;;;;;;;18.13;12.18;;;6.30;99.90;;;;;;5067040;28;20040;-81
2022/04/29 04:00:08;;;;;;;20.83;12.02;;;6.30;99.90;;;;;;5066678;28;20048;-81
2022/04/29 04:02:33;;;;;;;19.63;12.15;;;6.40;99.90;;;;;;5065444;28;20132;-80
2022/04/29 04:04:59;;;;;;;21.98;12.93;;;6.40;99.90;;;;;;5069548;28;20119;-80
2022/04/29 04:07:24;;;;;;;19.25;12.82;;;6.40;99.90;;;;;;5064560;28;20476;-80
2022/04/29 04:09:50;;;;;;;23.35;12.85;;;6.40;99.90;;;;;;5068745;28;20089;-81
2022/04/29 04:12:16;;;;;;;21.08;12.23;;;6.40;99.90;;;;;;5063771;28;20147;-80
2022/04/29 04:14:42;;;;;;;22.38;12.50;;;6.30;99.90;;;;;;5061557;28;20110;-80
2022/04/29 04:17:08;;;;;;;21.45;12.70;;;6.30;99.90;;;;;;5065978;28;20074;-81
2022/04/29 04:19:35;;;;;;;17.45;13.05;;;6.30;99.90;;;;;;5069057;28;20040;-81
2022/04/29 04:22:01;;;;;;;20.10;12.35;;;6.30;99.90;;;;;;5059198;28;20061;-81
2022/04/29 04:24:27;;;;;;;23.83;13.65;;;6.30;99.90;;;;;;5055922;28;20071;-80
2022/04/29 04:26:53;;;;;;;21.05;12.98;;;6.30;99.90;;;;;;5064983;28;20040;-80
2022/04/29 04:29:18;;;;;;;20.00;12.55;;;6.20;99.90;;;;;;5065525;28;20041;-80
2022/04/29 04:31:44;;;;;;;18.40;12.40;;;6.20;99.90;;;;;;5066795;28;20083;-80
2022/04/29 04:36:54;;;;;;;21.55;13.15;;;6.20;99.90;;;;;;5061708;28;20554;-80
2022/04/29 04:39:21;;;;;;;19.88;12.70;;;6.20;99.90;;;;;;5069164;28;20092;-81
2022/04/29 04:41:48;;;;;;;20.15;11.35;;;6.30;99.90;;;;;;5066365;28;20040;-80
2022/04/29 04:44:14;;;;;;;18.88;12.90;;;6.30;99.90;;;;;;5066812;28;20104;-80
2022/04/29 04:46:40;;;;;;;21.92;12.68;;;6.30;99.90;;;;;;5066355;28;20051;-80
2022/04/29 04:49:05;;;;;;;20.83;13.13;;;6.30;99.90;;;;;;5065252;28;20124;-79
2022/04/29 04:51:31;;;;;;;20.30;12.27;;;6.40;99.90;;;;;;5063823;28;20154;-80
2022/04/29 04:53:57;;;;;;;20.52;13.02;;;6.40;99.90;;;;;;5064718;28;20373;-81
2022/04/29 04:56:23;;;;;;;23.15;13.00;;;6.40;99.90;;;;;;5066446;28;20468;-81
2022/04/29 04:58:48;;;;;;;20.35;12.48;;;6.40;99.90;;;;;;5064398;28;20040;-81
2022/04/29 05:01:14;;;;;;;20.70;12.43;;;6.40;99.90;;;;;;5067013;28;20036;-80
2022/04/29 05:03:40;;;;;;;18.42;12.55;;;6.50;99.90;;;;;;5065054;28;20041;-80
2022/04/29 05:06:05;;;;;;;22.13;13.18;;;6.50;99.90;;;;;;5063157;28;20079;-79
2022/04/29 05:08:31;;;;;;;22.38;12.82;;;6.50;99.90;;;;;;5068158;28;20032;-80
2022/04/29 05:10:56;;;;;;;19.65;11.07;;;6.50;99.90;;;;;;5064076;28;20941;-81
2022/04/29 05:13:22;;;;;;;21.20;12.13;;;6.50;99.90;;;;;;5067067;28;20048;-80
2022/04/29 05:15:48;;;;;;;20.27;12.45;;;6.60;99.90;;;;;;5063906;28;20052;-80
2022/04/29 05:18:15;;;;;;;17.85;12.32;;;6.60;99.90;;;;;;5061474;28;20361;-81
2022/04/29 05:20:40;;;;;;;19.10;12.63;;;6.70;99.90;;;;;;5068074;28;20040;-81
2022/04/29 05:23:06;;;;;;;21.30;13.07;;;6.80;99.90;;;;;;5066202;28;20044;-81
2022/04/29 05:25:33;;;;;;;21.92;13.65;;;6.80;99.90;;;;;;5060909;28;20136;-81
2022/04/29 05:27:59;;;;;;;16.35;12.00;;;6.80;99.90;;;;;;5067402;28;20044;-80
2022/04/29 05:30:30;;;;;;;21.17;12.52;;;6.90;99.90;;;;;;5067718;28;20040;-80
2022/04/29 05:32:56;;;;;;;17.55;11.82;;;7.00;99.90;;;;;;5066418;28;20055;-80
2022/04/29 05:35:22;;;;;;;18.95;12.80;;;7.00;99.90;;;;;;5070267;28;20094;-81
2022/04/29 05:37:48;;;;;;;22.42;13.00;;;7.00;99.90;;;;;;5068781;28;20091;-81
2022/04/29 05:42:58;;;;;;;25.75;13.40;;;7.20;99.90;;;;;;5070383;28;20049;-80
2022/04/29 05:45:24;;;;;;;21.42;12.63;;;7.20;99.90;;;;;;5070889;28;20487;-80
2022/04/29 05:47:50;;;;;;;18.60;12.02;;;7.30;99.90;;;;;;5067994;28;20048;-81
2022/04/29 05:50:16;;;;;;;18.88;12.32;;;7.40;99.90;;;;;;5069737;28;20032;-80
2022/04/29 05:52:41;;;;;;;19.23;11.88;;;7.50;99.90;;;;;;5068958;28;20079;-79
2022/04/29 05:55:08;;;;;;;19.77;12.27;;;7.60;99.90;;;;;;5068237;28;20033;-80
2022/04/29 05:57:33;;;;;;;19.55;12.48;;;7.70;99.90;;;;;;5072841;28;20055;-76
2022/04/29 05:59:59;;;;;;;24.60;11.35;;;7.80;99.90;;;;;;5086885;28;20033;-80
2022/04/29 06:02:31;;;;;;;20.08;11.73;;;7.90;99.90;;;;;;5074480;28;20049;-80
2022/04/29 06:04:56;;;;;;;23.13;12.30;;;8.00;99.90;;;;;;5087886;28;20041;-79
2022/04/29 06:07:22;;;;;;;18.63;10.68;;;8.00;99.90;;;;;;5070420;28;20037;-80
2022/04/29 06:10:07;;;;;;;17.95;11.45;;;8.00;99.90;;;;;;5070455;28;20420;-80
2022/04/29 06:12:41;;;;;;;24.45;11.63;;;8.00;99.90;;;;;;5052862;28;20124;-80
2022/04/29 06:15:14;;;;;;;19.73;11.57;;;8.10;99.90;;;;;;5065303;28;20486;-75
2022/04/29 06:17:40;;;;;;;18.50;11.60;;;8.10;99.90;;;;;;5069675;28;20522;-79
2022/04/29 06:20:07;;;;;;;18.17;10.82;;;8.10;99.90;;;;;;5070304;28;20045;-79
2022/04/29 06:22:32;;;;;;;16.10;11.13;;;8.20;99.90;;;;;;5065722;28;20178;-78
2022/04/29 06:24:58;;;;;;;18.08;11.55;;;8.20;99.90;;;;;;5070910;28;20124;-78
2022/04/29 06:27:23;;;;;;;18.45;11.05;;;8.20;99.90;;;;;;5068411;28;20480;-78
2022/04/29 06:29:49;;;;;;;19.33;11.40;;;8.30;99.90;;;;;;5066595;28;20044;-78
2022/04/29 06:32:15;;;;;;;22.98;11.75;;;8.30;99.90;;;;;;5067077;28;20430;-78
2022/04/29 06:34:43;;;;;;;17.20;11.05;;;8.40;99.90;;;;;;5071081;28;20047;-78
2022/04/29 06:37:10;;;;;;;17.75;11.32;;;8.40;99.90;;;;;;5064287;28;20040;-78
2022/04/29 06:39:37;;;;;;;;;;;8.50;99.90;;;;;;5068790;28;20060;-78
2022/04/29 06:42:03;;;;;;;20.83;12.03;;;8.50;99.90;;;;;;5066655;28;20077;-78
2022/04/29 06:44:28;;;;;;;20.13;12.00;;;8.40;99.90;;;;;;5066443;28;20215;-78
2022/04/29 06:46:54;;;;;;;16.30;10.95;;;8.50;99.90;;;;;;5064693;28;20558;-78
2022/04/29 06:49:20;;;;;;;17.95;11.70;;;8.50;99.90;;;;;;5067396;28;20052;-78
2022/04/29 06:51:45;;;;;;;18.10;11.25;;;8.50;99.90;;;;;;5059904;28;20048;-79
2022/04/29 06:54:11;;;;;;;20.25;11.27;;;8.50;99.90;;;;;;5068546;28;20538;-79
2022/04/29 06:56:36;;;;;;;17.30;11.68;;;8.60;99.90;;;;;;5063343;28;20056;-79
2022/04/29 06:59:03;;;;;;;20.67;11.18;;;8.60;99.90;;;;;;5067105;28;20053;-81
2022/04/29 07:01:29;;;;;;;16.52;10.88;;;8.60;99.90;;;;;;5066538;28;20052;-78
2022/04/29 07:03:55;;;;;;;18.38;11.18;;;8.70;99.90;;;;;;5063884;28;20043;-80
2022/04/29 07:06:22;;;;;;;17.25;10.73;;;8.70;99.90;;;;;;5068006;28;20035;-77
2022/04/29 07:08:48;;;;;;;13.50;10.02;;;8.80;99.90;;;;;;5064023;28;20055;-80
2022/04/29 07:11:13;;;;;;;20.48;9.95;;;8.80;99.90;;;;;;5068405;28;20056;-80
2022/04/29 07:13:42;;;;;;;17.48;10.00;;;8.80;99.90;;;;;;5065895;28;20044;-80
2022/04/29 07:16:08;;;;;;;18.30;9.73;;;8.80;99.90;;;;;;5064459;28;20472;-80
2022/04/29 07:18:34;;;;;;;16.05;9.07;;;8.80;99.90;;;;;;5066293;28;20535;-77
2022/04/29 07:21:00;;;;;;;15.05;9.38;;;8.80;99.90;;;;;;5068795;28;20094;-79
2022/04/29 07:23:26;;;;;;;13.02;9.07;;;8.80;99.90;;;;;;5062613;28;20132;-80
2022/04/29 07:25:51;;;;;;;13.30;9.50;;;8.80;99.90;;;;;;5065462;28;20555;-80
2022/04/29 07:28:17;;;;;;;14.63;9.75;;;8.90;99.90;;;;;;5063331;28;21065;-80
2022/04/29 07:30:43;;;;;;;18.85;8.98;;;8.90;99.90;;;;;;5066500;28;20392;-80
2022/04/29 07:33:08;;;;;;;13.35;7.60;;;8.90;99.90;;;;;;5058739;28;20081;-78
2022/04/29 07:43:46;;;;;;;12.95;7.85;;;9.00;99.90;;;;;;5060279;28;20506;-77
2022/04/29 07:46:12;;;;;;;13.90;7.32;;;9.10;99.90;;;;;;5056695;28;20170;-77
2022/04/29 07:48:39;;;;;;;12.98;7.35;;;9.10;99.90;;;;;;5062919;28;20082;-79
2022/04/29 07:51:04;;;;;;;13.15;7.93;;;9.10;99.90;;;;;;5061785;28;20040;-77
2022/04/29 07:53:30;;;;;;;11.77;7.90;;;9.10;99.90;;;;;;5054415;28;20048;-75
2022/04/29 07:55:56;;;;;;;12.75;8.05;;;9.10;99.90;;;;;;5058974;28;20373;-76
2022/04/29 07:58:21;;;;;;;13.88;8.40;;;9.20;99.90;;;;;;5057411;28;20388;-76
2022/04/29 08:00:48;;;;;;;12.90;8.23;;;9.20;99.90;;;;;;5060016;28;20045;-75
2022/04/29 08:03:13;;;;;;;12.95;7.22;;;9.30;99.90;;;;;;5062268;28;20041;-76
2022/04/29 08:05:39;;;;;;;12.40;7.82;;;9.40;99.90;;;;;;5064408;28;20044;-80
2022/04/29 08:08:05;;;;;;;13.52;8.00;;;9.50;99.90;;;;;;5059626;28;20053;-74
2022/04/29 08:10:32;;;;;;;13.48;8.10;;;9.50;99.90;;;;;;5067567;28;20387;-75
2022/04/29 08:12:59;;;;;;;15.07;8.07;;;9.50;99.90;;;;;;5065499;28;20153;-75
2022/04/29 08:15:29;;;;;;;13.18;7.60;;;9.60;99.90;;;;;;5068132;28;20048;-78
2022/04/29 08:17:55;;;;;;;12.40;8.05;;;9.60;99.90;;;;;;5067672;28;20502;-79
2022/04/29 08:20:21;;;;;;;12.57;6.95;;;9.70;99.90;;;;;;5065172;28;20904;-77
2022/04/29 08:22:47;;;;;;;9.05;6.28;;;9.70;99.90;;;;;;5069467;28;20044;-77
2022/04/29 08:25:15;;;;;;;11.75;6.60;;;9.70;99.90;;;;;;5064524;28;20048;-77
2022/04/29 08:27:41;;;;;;;13.68;6.53;;;9.70;99.90;;;;;;5054200;28;20044;-77
2022/04/29 08:30:08;;;;;;;12.82;6.47;;;9.80;99.90;;;;;;5059565;28;20059;-78
2022/04/29 08:32:41;;;;;;;10.93;6.20;;;9.80;99.90;;;;;;5063690;28;20045;-77
2022/04/29 08:35:09;;;;;;;12.00;5.80;;;10.00;99.90;;;;;;5066184;28;20040;-76
2022/04/29 08:37:37;;;;;;;10.00;5.68;;;10.10;99.90;;;;;;5068593;28;20048;-75
2022/04/29 08:40:04;;;;;;;10.77;5.82;;;10.10;99.90;;;;;;5065642;28;20507;-77
2022/04/29 08:42:36;;;;;;;8.00;5.75;;;10.20;99.90;;;;;;5062913;28;20165;-80
2022/04/29 08:45:02;;;;;;;10.48;5.03;;;10.30;99.90;;;;;;5059254;28;20040;-82
2022/04/29 08:47:29;;;;;;;10.65;5.88;;;10.50;99.90;;;;;;5063862;28;20051;-85
2022/04/29 08:49:55;;;;;;;9.83;5.47;;;10.50;99.90;;;;;;5067859;28;20048;-86
2022/04/29 08:52:20;;;;;;;9.18;5.18;;;10.60;99.90;;;;;;5063856;28;20539;-83
2022/04/29 09:00:23;;;;;;;11.13;5.53;;;10.90;99.90;;;;;;5068498;28;20045;-86
2022/04/29 09:02:49;;;;;;;9.10;5.60;;;10.90;99.90;;;;;;5069043;28;20442;-86
2022/04/29 09:05:15;;;;;;;8.98;5.55;;;10.90;99.90;;;;;;5068706;28;20544;-82
2022/04/29 09:07:59;;;;;;;10.70;5.43;;;10.80;99.90;;;;;;5068684;28;20131;-85
2022/04/29 09:10:27;;;;;;;9.85;5.30;;;10.80;99.90;;;;;;5063125;28;20093;-83
2022/04/29 09:12:52;;;;;;;12.88;6.13;;;10.80;99.90;;;;;;5068106;28;20055;-81
2022/04/29 09:15:19;;;;;;;11.48;5.75;;;10.90;99.90;;;;;;5072614;28;20408;-82
2022/04/29 09:17:50;;;;;;;11.65;5.68;;;11.00;99.90;;;;;;5069402;28;20396;-81
2022/04/29 09:20:20;;;;;;;10.40;5.60;;;11.20;99.90;;;;;;5072438;28;20036;-81
2022/04/29 09:22:49;;;;;;;9.10;5.88;;;11.40;99.90;;;;;;5068931;28;20052;-82
2022/04/29 09:25:15;;;;;;;10.90;6.60;;;11.50;99.90;;;;;;5063555;28;20058;-80
2022/04/29 09:28:01;;;;;;;13.48;5.90;;;11.60;99.90;;;;;;5072654;28;20083;-80
2022/04/29 09:30:37;;;;;;;9.18;5.57;;;11.80;99.90;;;;;;5070208;28;20114;-80
2022/04/29 09:33:05;;;;;;;9.05;5.40;;;11.70;99.90;;;;;;5062412;28;20052;-75
2022/04/29 09:35:39;;;;;;;9.20;5.50;;;11.70;99.90;;;;;;5068890;28;20032;-77
2022/04/29 09:40:50;;;;;;;12.55;6.38;;;11.50;99.90;;;;;;5065328;28;20048;-76
2022/04/29 09:43:15;;;;;;;11.85;5.53;;;11.50;99.90;;;;;;5069933;28;20098;-76
2022/04/29 09:45:41;;;;;;;9.40;5.25;;;11.50;99.90;;;;;;5069105;28;20147;-76
2022/04/29 09:48:09;;;;;;;9.68;5.82;;;11.50;99.90;;;;;;5067404;28;20043;-75
2022/04/29 09:50:49;;;;;;;10.77;6.25;;;11.50;99.90;;;;;;5066685;28;20041;-77
2022/04/29 09:53:20;;;;;;;9.77;6.15;;;11.60;99.90;;;;;;5065530;28;20037;-76
2022/04/29 09:56:18;;;;;;;10.88;5.97;;;11.60;99.90;;;;;;5071398;28;20064;-79
2022/04/29 09:58:44;;;;;;;10.63;6.35;;;11.70;99.90;;;;;;5036843;28;20066;-79
2022/04/29 10:01:12;;;;;;;11.52;6.50;;;11.80;99.90;;;;;;5067614;28;20052;-78
2022/04/29 10:03:37;;;;;;;;;;;11.80;99.90;;;;;;5067991;28;20044;-77
2022/04/29 10:06:04;;;;;;;12.48;5.97;;;11.70;99.90;;;;;;5070842;28;19926;-79
2022/04/29 10:08:31;;;;;;;9.93;5.90;;;11.70;99.90;;;;;;5069416;28;20143;-78
2022/04/29 10:10:57;;;;;;;8.43;5.82;;;11.70;99.90;;;;;;5071854;28;20041;-75
2022/04/29 10:13:26;;;;;;;11.60;6.05;;;11.70;99.90;;;;;;5058725;28;20375;-81
2022/04/29 10:15:53;;;;;;;9.60;5.95;;;11.80;99.90;;;;;;5069601;28;20489;-76
2022/04/29 10:21:15;;;;;;;11.25;6.47;;;11.90;99.90;;;;;;5067866;28;20053;-82
2022/04/29 10:23:42;;;;;;;9.75;5.95;;;12.00;99.90;;;;;;5051898;28;20040;-82
2022/04/29 10:26:09;;;;;;;10.00;5.97;;;12.00;99.90;;;;;;5055589;28;20064;-79
2022/04/29 10:28:38;;;;;;;9.43;5.80;;;12.10;99.90;;;;;;5060595;28;20844;-76
2022/04/29 10:31:06;;;;;;;10.77;6.10;;;12.10;99.90;;;;;;5067664;28;20037;-76
2022/04/29 10:33:32;;;;;;;10.40;6.05;;;12.10;99.40;;;;;;5069866;28;20119;-76
2022/04/29 10:36:06;;;;;;;9.20;5.32;;;12.10;99.90;;;;;;5069911;28;20396;-76
2022/04/29 10:38:39;;;;;;;11.00;5.50;;;12.10;99.60;;;;;;5067211;28;20090;-76
2022/04/29 10:41:14;;;;;;;11.73;5.97;;;12.10;99.90;;;;;;5067947;28;20052;-76
2022/04/29 10:43:44;;;;;;;10.60;5.90;;;12.10;99.90;;;;;;5069081;28;20044;-76
2022/04/29 10:46:09;;;;;;;9.18;6.03;;;12.20;99.90;;;;;;5067329;28;20114;-78
2022/04/29 10:48:40;;;;;;;9.30;5.88;;;12.30;99.90;;;;;;5065457;28;20060;-76
2022/04/29 10:51:12;;;;;;;9.75;6.18;;;12.40;99.90;;;;;;5064784;28;20049;-77
2022/04/29 10:53:40;;;;;;;9.02;5.70;;;12.40;99.90;;;;;;5052271;28;20553;-79
2022/04/29 10:56:30;;;;;;;7.50;5.45;;;12.50;99.30;;;;;;5057479;28;20480;-78
2022/04/29 10:59:08;;;;;;;9.30;5.95;;;12.60;98.50;;;;;;5059723;28;20052;-77
2022/04/29 11:01:35;;;;;;;9.88;5.47;;;12.60;98.60;;;;;;5057300;28;20607;-74
2022/04/29 11:04:05;;;;;;;10.48;5.30;;;12.70;99.50;;;;;;5067528;28;20079;-85
2022/04/29 11:06:49;;;;;;;8.27;5.57;;;12.70;99.90;;;;;;5065043;28;20098;-80
2022/04/29 11:09:25;;;;;;;8.30;5.20;;;12.90;99.00;;;;;;5068206;28;20049;-77
2022/04/29 11:11:52;;;;;;;8.67;5.50;;;13.00;97.00;;;;;;5067137;28;20041;-77
2022/04/29 11:14:17;;;;;;;9.88;5.75;;;13.10;99.90;;;;;;5068371;28;20044;-76
2022/04/29 11:17:07;;;;;;;10.10;5.38;;;13.10;97.20;;;;;;5068613;28;20105;-72
2022/04/29 11:19:47;;;;;;;9.85;4.90;;;13.20;97.70;;;;;;5067102;28;20048;-76
2022/04/29 11:25:03;;;;;;;11.05;5.30;;;13.20;95.90;;;;;;5066530;28;20105;-75
2022/04/29 11:27:33;;;;;;;7.72;4.75;;;13.20;96.50;;;;;;5065122;28;20045;-75
2022/04/29 11:30:02;;;;;;;7.30;4.60;;;13.30;94.50;;;;;;5066198;28;20044;-74
2022/04/29 11:32:29;;;;;;;7.88;4.40;;;13.30;94.40;;;;;;5067711;28;20059;-76
2022/04/29 11:35:04;;;;;;;8.52;4.32;;;13.30;94.60;;;;;;5067263;28;20049;-75
2022/04/29 11:37:34;;;;;;;12.05;4.00;;;13.30;95.30;;;;;;5067877;28;20041;-79
2022/04/29 11:40:04;;;;;;;9.70;4.88;;;13.40;94.10;;;;;;5068865;28;20151;-73
2022/04/29 11:42:30;;;;;;;7.60;4.80;;;13.40;93.30;;;;;;5068506;28;20052;-74
2022/04/29 11:45:09;;;;;;;7.13;4.90;;;13.50;95.20;;;;;;5064095;28;20123;-81
2022/04/29 11:47:44;;;;;;;10.20;4.80;;;13.50;91.20;;;;;;5134916;27;20710;-75
2022/04/29 11:50:10;;;;;;;6.22;4.60;;;13.50;94.60;;;;;;5123251;27;20084;-78
2022/04/29 11:52:39;;;;;;;9.82;4.90;;;13.50;92.80;;;;;;5119506;27;20069;-77
2022/04/29 11:55:14;;;;;;;8.60;4.80;;;13.40;90.50;;;;;;5117663;27;20071;-79
2022/04/29 11:57:47;;;;;;;10.55;4.80;;;13.20;92.40;;;;;;5118103;27;20039;-77
2022/04/29 12:00:25;;;;;;;7.90;5.05;;;13.10;92.60;;;;;;5122663;27;20054;-77
2022/04/29 12:02:55;;;;;;;7.32;4.60;;;13.10;95.10;;;;;;5115907;27;20083;-77
2022/04/29 12:05:25;;;;;;;8.80;4.90;;;13.10;94.10;;;;;;5113414;27;20043;-77
2022/04/29 12:07:57;;;;;;;8.77;4.72;;;13.10;92.70;;;;;;5124743;28;20048;-77
2022/04/29 12:10:28;;;;;;;8.32;4.72;;;13.10;95.30;;;;;;5120836;27;20040;-79
2022/04/29 12:12:55;;;;;;;7.28;4.80;;;13.20;93.80;;;;;;5121860;28;20040;-78
2022/04/29 12:15:25;;;;;;;9.40;4.40;;;13.20;93.40;;;;;;5118177;27;20051;-77
2022/04/29 12:17:50;;;;;;;6.40;4.45;;;13.20;93.80;;;;;;5112222;27;20040;-77
2022/04/29 12:20:20;;;;;;;8.40;4.40;;;13.20;91.50;;;;;;5123558;27;20051;-79
2022/04/29 12:22:50;;;;;;;7.47;4.78;;;13.20;90.20;;;;;;5121757;27;20122;-76
2022/04/29 12:25:24;;;;;;;7.47;4.45;;;13.20;90.90;;;;;;5124664;27;20043;-77
2022/04/29 12:28:09;;;;;;;9.15;4.93;;;13.20;90.40;;;;;;5116949;27;20043;-76
2022/04/29 12:36:10;;;;;;;7.45;4.53;;;13.10;93.00;;;;;;5126285;27;20062;-76
2022/04/29 12:38:37;;;;;;;8.98;4.60;;;13.00;93.60;;;;;;5114549;27;20051;-74
2022/04/29 12:41:21;;;;;;;9.38;4.38;;;13.10;93.60;;;;;;5124494;27;20068;-74
2022/04/29 12:43:47;;;;;;;7.88;4.57;;;13.10;93.10;;;;;;5115434;27;20056;-75
2022/04/29 12:46:18;;;;;;;7.93;4.90;;;13.00;93.20;;;;;;5113502;27;20052;-79
2022/04/29 12:48:49;;;;;;;8.25;4.72;;;12.90;94.10;;;;;;5104185;28;20048;-77
2022/04/29 12:51:31;;;;;;;7.10;4.25;;;13.00;94.00;;;;;;5112485;27;20075;-78
2022/04/29 12:53:57;;;;;;;8.60;4.32;;;13.00;92.90;;;;;;5118338;27;20044;-77
2022/04/29 12:56:35;;;;;;;8.52;4.60;;;13.00;93.50;;;;;;5118171;27;20363;-77
2022/04/29 12:59:04;;;;;;;7.15;4.45;;;13.00;92.10;;;;;;5092092;28;20070;-78
2022/04/29 13:01:36;;;;;;;6.80;4.53;;;12.90;92.30;;;;;;5092199;28;20118;-78
2022/04/29 13:04:02;;;;;;;8.75;4.75;;;13.00;92.20;;;;;;5103265;27;20042;-78
2022/04/29 13:06:28;;;;;;;8.48;4.65;;;12.90;93.60;;;;;;5110454;28;20039;-78
2022/04/29 13:08:55;;;;;;;8.80;4.90;;;12.90;93.00;;;;;;5111879;28;20058;-78
2022/04/29 13:11:22;;;;;;;6.82;4.75;;;12.90;93.40;;;;;;5111869;28;20043;-78
2022/04/29 13:13:49;;;;;;;9.23;4.88;;;12.90;93.30;;;;;;5108254;27;20568;-78
2022/04/29 13:16:15;;;;;;;7.20;4.90;;;12.90;93.30;;;;;;5110812;28;20082;-77
2022/04/29 13:18:41;;;;;;;14.00;5.07;;;12.80;92.70;;;;;;5106060;28;20578;-78
2022/04/29 13:21:08;;;;;;;5.40;4.57;;;12.80;91.40;;;;;;5110491;28;20537;-78